KCKI

Williamsburg Regional Airport

Kingstree, South Carolina, USA
METAR KCKI 200715Z AUTO 00000KT 1/4SM FG OVC002 16/16 A3040 RMK AO2
Observed Flight Rules
Feb-20 @ 07:15 UTC (22 minutes ago) Instrument Flight Rules
Wind Visibility Clouds Conditions
Calm 1/4 miles
  • Overcast at 200' AGL
  • Fog
Temperatures Readings
Current 16°C / 61°F
Dewpoint 16°C / 61°F
Humidity 100%
Altimeter 30.4" Hg
Pressure 1029 hPa
Elevation 21
METAR KCKI 200715Z AUTO 00000KT 1/4SM FG OVC002 16/16 A3040 RMK AO2
Observed Flight Rules
Feb-20 @ 07:15 UTC
(22 minutes ago)
LIFR
Wind Visibility
Calm 1/4 miles
Clouds
  • Overcast at 200' AGL
Conditions
  • Fog
Temperature Dewpoint
16°C / 61°F 16°C / 61°F
Humidity Altimeter Pressure
100% 30.4" Hg 1029 hPa